Time;durP1;ratioP1;P1;durP2;ratioP2;P2;SDS_P1;SDS_P2;PMS_P1;PMS_P2;Temp;Humidity;BMP_temperature;BMP_pressure;BME280_temperature;BME280_humidity;BME280_pressure;Samples;Min_cycle;Max_cycle;Signal;HPM_P1;HPM_P2
2023/07/23 00:01:19;;;;;;;;;;;20.10;81.00;;;;;;4157968;28;19982;-54
2023/07/23 00:04:00;;;;;;;;;;;20.10;81.10;;;;;;4171079;28;20066;-55
2023/07/23 00:06:41;;;;;;;;;;;20.10;82.00;;;;;;4158615;28;19932;-53
2023/07/23 00:09:22;;;;;;;;;;;20.00;81.10;;;;;;4158697;28;19933;-50
2023/07/23 00:12:03;;;;;;;;;;;20.10;81.20;;;;;;4159547;28;19935;-49
2023/07/23 00:14:44;;;;;;;;;;;20.00;81.90;;;;;;4158676;28;19952;-55
2023/07/23 00:17:26;;;;;;;;;;;20.00;80.90;;;;;;4142167;28;20010;-53
2023/07/23 00:20:09;;;;;;;;;;;20.00;80.90;;;;;;4141498;28;19936;-54
2023/07/23 00:22:50;;;;;;;;;;;20.00;81.90;;;;;;4154374;28;20014;-49
2023/07/23 00:25:31;;;;;;;;;;;20.00;81.10;;;;;;4170455;28;19935;-54
2023/07/23 00:28:11;;;;;;;;;;;20.00;81.10;;;;;;4170079;28;20392;-54
2023/07/23 00:30:52;;;;;;;;;;;20.00;82.00;;;;;;4141313;28;20018;-53
2023/07/23 00:33:34;;;;;;;;;;;20.00;81.10;;;;;;4169833;28;19932;-53
2023/07/23 00:36:15;;;;;;;;;;;20.00;81.10;;;;;;4170728;28;19931;-54
2023/07/23 00:38:55;;;;;;;;;;;20.00;81.10;;;;;;4169703;28;19935;-53
2023/07/23 00:41:36;;;;;;;;;;;20.00;81.10;;;;;;4170769;28;19932;-50
2023/07/23 00:44:17;;;;;;;;;;;20.00;81.10;;;;;;4181469;28;19936;-54
2023/07/23 00:46:59;;;;;;;;;;;19.90;81.10;;;;;;4170821;28;20453;-54
2023/07/23 00:49:41;;;;;;;;;;;19.90;81.20;;;;;;4170110;28;19935;-53
2023/07/23 00:52:22;;;;;;;;;;;19.90;81.20;;;;;;4158276;28;19931;-55
2023/07/23 00:55:03;;;;;;;;;;;19.90;81.30;;;;;;4158459;28;19936;-53
2023/07/23 00:57:45;;;;;;;;;;;19.90;82.10;;;;;;4170852;28;20276;-54
2023/07/23 01:00:26;;;;;;;;;;;19.90;81.30;;;;;;4154192;28;20437;-53
2023/07/23 01:03:06;;;;;;;;;;;19.90;81.30;;;;;;4151563;28;19932;-54
2023/07/23 01:05:50;;;;;;;;;;;19.90;81.30;;;;;;4162865;28;20031;-57
2023/07/23 01:08:31;;;;;;;;;;;19.90;81.30;;;;;;4159017;28;19982;-56
2023/07/23 01:11:12;;;;;;;;;;;19.90;81.30;;;;;;4170623;28;19931;-55
2023/07/23 01:13:54;;;;;;;;;;;19.90;81.40;;;;;;4146820;28;19932;-55
2023/07/23 01:16:35;;;;;;;;;;;19.90;81.40;;;;;;4170754;28;20394;-56
2023/07/23 01:19:16;;;;;;;;;;;19.90;81.50;;;;;;4147509;28;20280;-56
2023/07/23 01:22:00;;;;;;;;;;;19.90;81.50;;;;;;4157670;28;19936;-54
2023/07/23 01:24:41;;;;;;;;;;;19.90;81.50;;;;;;4160662;28;19935;-56
2023/07/23 01:27:22;;;;;;;;;;;19.90;82.40;;;;;;4161166;28;20612;-53
2023/07/23 01:30:03;;;;;;;;;;;19.90;81.60;;;;;;4143981;28;19932;-61
2023/07/23 01:32:45;;;;;;;;;;;19.90;81.60;;;;;;4196465;28;19978;-53
2023/07/23 01:35:25;;;;;;;;;;;19.90;81.70;;;;;;4173187;28;19936;-57
2023/07/23 01:38:08;;;;;;;;;;;19.80;81.70;;;;;;4186043;28;19939;-53
2023/07/23 01:40:49;;;;;;;;;;;19.80;81.70;;;;;;4177566;28;20307;-53
2023/07/23 01:43:30;;;;;;;;;;;19.80;81.80;;;;;;4190233;28;19996;-55
2023/07/23 01:46:11;;;;;;;;;;;19.90;81.90;;;;;;4184213;28;19935;-55
2023/07/23 01:48:52;;;;;;;;;;;19.80;81.90;;;;;;4171582;28;19952;-56
2023/07/23 01:51:33;;;;;;;;;;;19.80;81.90;;;;;;4172333;28;19979;-55
2023/07/23 01:54:15;;;;;;;;;;;19.80;81.80;;;;;;4157716;28;19936;-54
2023/07/23 01:56:56;;;;;;;;;;;19.80;81.90;;;;;;4183634;28;19939;-52
2023/07/23 01:59:37;;;;;;;;;;;19.80;82.00;;;;;;4144994;28;19932;-54
2023/07/23 02:02:18;;;;;;;;;;;19.80;82.00;;;;;;4144995;28;19948;-54
2023/07/23 02:04:59;;;;;;;;;;;19.80;82.10;;;;;;4173336;28;20000;-54
2023/07/23 02:07:39;;;;;;;;;;;19.80;82.10;;;;;;4172061;28;20379;-54
2023/07/23 02:10:21;;;;;;;;;;;19.80;83.00;;;;;;4170961;28;19935;-53
2023/07/23 02:13:02;;;;;;;;;;;19.80;82.20;;;;;;4173533;28;20063;-54
2023/07/23 02:15:43;;;;;;;;;;;19.80;82.20;;;;;;4172881;28;19932;-55
2023/07/23 02:18:23;;;;;;;;;;;19.80;82.10;;;;;;4145084;28;19933;-55
2023/07/23 02:21:04;;;;;;;;;;;19.80;82.20;;;;;;4155557;28;19936;-55
2023/07/23 02:23:45;;;;;;;;;;;19.80;82.30;;;;;;4163324;28;20010;-53
2023/07/23 02:26:27;;;;;;;;;;;19.80;82.40;;;;;;4171378;28;19931;-52
2023/07/23 02:29:08;;;;;;;;;;;19.80;83.40;;;;;;4173028;28;19932;-51
2023/07/23 02:31:48;;;;;;;;;;;19.70;82.60;;;;;;4171082;28;20066;-52
2023/07/23 02:34:29;;;;;;;;;;;19.70;82.70;;;;;;4165206;28;19932;-51
2023/07/23 02:37:10;;;;;;;;;;;19.70;82.80;;;;;;4172787;28;20018;-55
2023/07/23 02:39:53;;;;;;;;;;;19.70;82.80;;;;;;4172957;28;20011;-50
2023/07/23 02:42:35;;;;;;;;;;;19.70;82.80;;;;;;4172330;28;19936;-53
2023/07/23 02:45:16;;;;;;;;;;;19.70;83.60;;;;;;4172518;28;19931;-50
2023/07/23 02:47:56;;;;;;;;;;;19.70;82.80;;;;;;4158956;28;20391;-53
2023/07/23 02:50:38;;;;;;;;;;;19.70;83.00;;;;;;4153910;28;19983;-52
2023/07/23 02:53:20;;;;;;;;;;;19.70;83.00;;;;;;4158224;28;20299;-51
2023/07/23 02:56:01;;;;;;;;;;;19.70;83.00;;;;;;4172126;28;19935;-55
2023/07/23 02:58:43;;;;;;;;;;;19.70;83.00;;;;;;4170865;28;19932;-54
2023/07/23 03:01:23;;;;;;;;;;;19.70;83.00;;;;;;4152218;28;19936;-50
2023/07/23 03:04:04;;;;;;;;;;;19.70;83.10;;;;;;4139778;28;20422;-49
2023/07/23 03:06:45;;;;;;;;;;;19.70;83.10;;;;;;4171073;28;19943;-50
2023/07/23 03:09:26;;;;;;;;;;;19.70;82.90;;;;;;4160076;28;20027;-49
2023/07/23 03:12:09;;;;;;;;;;;19.70;84.00;;;;;;4153829;28;20363;-51
2023/07/23 03:14:53;;;;;;;;;;;19.70;83.10;;;;;;4143657;28;20038;-55
2023/07/23 03:17:33;;;;;;;;;;;19.70;84.00;;;;;;4154797;28;19936;-54
2023/07/23 03:20:15;;;;;;;;;;;19.70;83.10;;;;;;4163139;28;20058;-51
2023/07/23 03:22:55;;;;;;;;;;;19.70;83.10;;;;;;4147523;28;19932;-53
2023/07/23 03:25:36;;;;;;;;;;;19.70;83.10;;;;;;4172051;28;19936;-50
2023/07/23 03:28:17;;;;;;;;;;;19.70;83.10;;;;;;4172012;28;19936;-49
2023/07/23 03:31:00;;;;;;;;;;;19.60;83.00;;;;;;4170537;28;19932;-49
2023/07/23 03:33:41;;;;;;;;;;;19.60;83.90;;;;;;4175422;28;19993;-50
2023/07/23 03:36:22;;;;;;;;;;;19.60;83.10;;;;;;4161997;28;20295;-52
2023/07/23 03:39:04;;;;;;;;;;;19.70;83.10;;;;;;4187882;28;19939;-54
2023/07/23 03:41:45;;;;;;;;;;;19.60;83.90;;;;;;4159604;28;19932;-50
2023/07/23 03:44:25;;;;;;;;;;;19.60;83.00;;;;;;4171672;28;19982;-49
2023/07/23 03:47:13;;;;;;;;;;;19.60;83.10;;;;;;4171269;28;19934;-49
2023/07/23 03:49:54;;;;;;;;;;;19.60;83.00;;;;;;4170930;28;19932;-55
2023/07/23 03:52:34;;;;;;;;;;;19.60;83.00;;;;;;4165003;28;20295;-51
2023/07/23 03:55:15;;;;;;;;;;;19.60;83.10;;;;;;4158986;28;19932;-53
2023/07/23 03:57:56;;;;;;;;;;;19.60;83.00;;;;;;4169924;28;19939;-54
2023/07/23 04:00:38;;;;;;;;;;;19.60;83.00;;;;;;4157760;28;19931;-50
2023/07/23 04:03:20;;;;;;;;;;;19.60;82.90;;;;;;4170469;28;19935;-53
2023/07/23 04:06:03;;;;;;;;;;;19.60;83.70;;;;;;4159375;28;20304;-55
2023/07/23 04:08:44;;;;;;;;;;;19.60;82.90;;;;;;4170789;28;19935;-55
2023/07/23 04:11:25;;;;;;;;;;;19.60;83.00;;;;;;4170855;28;19974;-53
2023/07/23 04:14:07;;;;;;;;;;;19.70;83.00;;;;;;4187090;28;19970;-55
2023/07/23 04:16:48;;;;;;;;;;;19.60;82.90;;;;;;4187686;28;19935;-51
2023/07/23 04:19:30;;;;;;;;;;;19.60;83.00;;;;;;4163721;28;19936;-52
2023/07/23 04:22:11;;;;;;;;;;;19.60;82.90;;;;;;4152694;28;19932;-52
2023/07/23 04:24:52;;;;;;;;;;;19.60;83.00;;;;;;4166348;28;19931;-51
2023/07/23 04:27:33;;;;;;;;;;;19.60;83.90;;;;;;4158368;28;19952;-55
2023/07/23 04:30:15;;;;;;;;;;;19.60;83.00;;;;;;4169987;28;19935;-52
2023/07/23 04:32:55;;;;;;;;;;;19.60;83.00;;;;;;4169725;28;20383;-53
2023/07/23 04:35:37;;;;;;;;;;;19.60;83.00;;;;;;4158117;28;20422;-53
2023/07/23 04:38:18;;;;;;;;;;;19.60;83.00;;;;;;4170169;28;19974;-48
2023/07/23 04:40:59;;;;;;;;;;;19.60;83.00;;;;;;4157730;28;20394;-53
2023/07/23 04:43:41;;;;;;;;;;;19.60;82.90;;;;;;4187433;28;19931;-51
2023/07/23 04:46:22;;;;;;;;;;;19.60;82.90;;;;;;4187727;28;19931;-53
2023/07/23 04:49:03;;;;;;;;;;;19.60;82.90;;;;;;4177888;28;20296;-50
2023/07/23 04:51:45;;;;;;;;;;;19.60;83.00;;;;;;4170539;28;19936;-52
2023/07/23 04:54:26;;;;;;;;;;;19.60;83.80;;;;;;4154682;28;20411;-51
2023/07/23 04:57:06;;;;;;;;;;;19.60;83.00;;;;;;4169725;28;19931;-54
2023/07/23 04:59:47;;;;;;;;;;;19.60;83.00;;;;;;4162997;28;19944;-53
2023/07/23 05:02:27;;;;;;;;;;;19.60;83.00;;;;;;4170338;28;19932;-52
2023/07/23 05:05:08;;;;;;;;;;;19.60;83.00;;;;;;4170467;28;20067;-55
2023/07/23 05:07:50;;;;;;;;;;;19.60;83.00;;;;;;4170194;28;19970;-51
2023/07/23 05:10:31;;;;;;;;;;;19.60;83.00;;;;;;4154517;28;19932;-58
2023/07/23 05:13:12;;;;;;;;;;;19.60;83.00;;;;;;4161829;28;19931;-62
2023/07/23 05:15:52;;;;;;;;;;;19.60;83.00;;;;;;4141835;28;20288;-57
2023/07/23 05:18:33;;;;;;;;;;;19.60;83.40;;;;;;4154887;28;19931;-56
2023/07/23 05:21:14;;;;;;;;;;;19.70;83.40;;;;;;4168553;28;19936;-49
2023/07/23 05:23:56;;;;;;;;;;;19.70;83.40;;;;;;4178823;28;19931;-50
2023/07/23 05:26:37;;;;;;;;;;;19.60;83.30;;;;;;4179780;28;19936;-51
2023/07/23 05:29:17;;;;;;;;;;;19.60;83.20;;;;;;4168959;28;19932;-50
2023/07/23 05:31:58;;;;;;;;;;;19.60;83.10;;;;;;4155443;28;20593;-53
2023/07/23 05:34:39;;;;;;;;;;;19.60;83.30;;;;;;4156732;28;19931;-50
2023/07/23 05:37:20;;;;;;;;;;;19.60;83.20;;;;;;4163960;28;19936;-52
2023/07/23 05:40:04;;;;;;;;;;;19.60;83.30;;;;;;4164577;28;20511;-55
2023/07/23 05:42:44;;;;;;;;;;;19.60;83.30;;;;;;4167179;28;20014;-50
2023/07/23 05:45:25;;;;;;;;;;;19.60;83.30;;;;;;4183145;28;20013;-58
2023/07/23 05:48:06;;;;;;;;;;;19.60;83.40;;;;;;4187067;28;20303;-53
2023/07/23 05:50:46;;;;;;;;;;;19.60;83.50;;;;;;4186932;28;19932;-53
2023/07/23 05:53:27;;;;;;;;;;;19.60;83.50;;;;;;4172086;28;19935;-53
2023/07/23 05:56:09;;;;;;;;;;;19.60;84.30;;;;;;4178376;28;19931;-55
2023/07/23 05:58:50;;;;;;;;;;;19.60;83.50;;;;;;4159987;28;19935;-53
2023/07/23 06:01:31;;;;;;;;;;;19.60;83.50;;;;;;4175282;28;19994;-53
2023/07/23 06:04:12;;;;;;;;;;;19.60;84.50;;;;;;4170093;28;20380;-51
2023/07/23 06:06:53;;;;;;;;;;;19.60;83.60;;;;;;4152229;28;19935;-53
2023/07/23 06:09:33;;;;;;;;;;;19.60;83.60;;;;;;4170678;28;19932;-52
2023/07/23 06:12:15;;;;;;;;;;;19.60;83.70;;;;;;4157280;28;19952;-53
2023/07/23 06:14:57;;;;;;;;;;;19.60;83.70;;;;;;4188388;28;19935;-50
2023/07/23 06:17:37;;;;;;;;;;;19.60;83.80;;;;;;4149267;28;19967;-50
2023/07/23 06:20:18;;;;;;;;;;;19.60;85.10;;;;;;4172538;28;19966;-47
2023/07/23 06:23:00;;;;;;;;;;;19.60;86.40;;;;;;4188680;28;19977;-55
2023/07/23 06:25:41;;;;;;;;;;;19.60;86.60;;;;;;4166373;28;19935;-51
2023/07/23 06:28:23;;;;;;;;;;;19.60;86.70;;;;;;4173879;28;20008;-51
2023/07/23 06:31:04;;;;;;;;;;;19.70;87.50;;;;;;4171042;28;19936;-55
2023/07/23 06:33:45;;;;;;;;;;;19.60;86.20;;;;;;4154665;28;19936;-55
2023/07/23 06:36:25;;;;;;;;;;;19.60;85.90;;;;;;4139591;28;19936;-54
2023/07/23 06:39:06;;;;;;;;;;;19.60;86.50;;;;;;4152932;28;19982;-53
2023/07/23 06:41:47;;;;;;;;;;;19.60;85.40;;;;;;4156124;28;19935;-53
2023/07/23 06:44:30;;;;;;;;;;;19.60;85.10;;;;;;4156401;28;20284;-47
2023/07/23 06:47:12;;;;;;;;;;;19.60;85.90;;;;;;4189136;28;19940;-48
2023/07/23 06:49:52;;;;;;;;;;;19.60;84.90;;;;;;4171961;28;19948;-51
2023/07/23 06:52:33;;;;;;;;;;;19.60;84.70;;;;;;4155667;28;20403;-51
2023/07/23 06:55:14;;;;;;;;;;;19.60;85.60;;;;;;4157962;28;19932;-49
2023/07/23 06:57:55;;;;;;;;;;;19.60;84.50;;;;;;4170836;28;20374;-50
2023/07/23 07:00:37;;;;;;;;;;;19.60;84.50;;;;;;4171253;28;20296;-49
2023/07/23 07:03:17;;;;;;;;;;;19.60;84.50;;;;;;4170944;28;19978;-45
2023/07/23 07:05:58;;;;;;;;;;;19.60;84.30;;;;;;4172430;28;20045;-50
2023/07/23 07:08:39;;;;;;;;;;;19.60;84.80;;;;;;4171779;28;19977;-48
2023/07/23 07:11:20;;;;;;;;;;;19.60;85.00;;;;;;4159490;28;19935;-49
2023/07/23 07:14:01;;;;;;;;;;;19.70;85.00;;;;;;4161067;28;19995;-48
2023/07/23 07:16:43;;;;;;;;;;;19.70;84.80;;;;;;4169866;28;19940;-50
2023/07/23 07:19:24;;;;;;;;;;;19.70;84.70;;;;;;4144812;28;19932;-46
2023/07/23 07:22:05;;;;;;;;;;;19.70;85.50;;;;;;4171404;28;19932;-48
2023/07/23 07:24:46;;;;;;;;;;;19.70;84.50;;;;;;4155362;28;20124;-50
2023/07/23 07:27:27;;;;;;;;;;;19.70;84.60;;;;;;4171662;28;19943;-50
2023/07/23 07:30:08;;;;;;;;;;;19.70;85.50;;;;;;4171240;28;19935;-50
2023/07/23 07:32:51;;;;;;;;;;;19.70;84.60;;;;;;4171376;28;20727;-48
2023/07/23 07:35:32;;;;;;;;;;;19.70;84.60;;;;;;4169037;28;19932;-49
2023/07/23 07:38:13;;;;;;;;;;;19.60;84.60;;;;;;4171454;28;20048;-47
2023/07/23 07:40:56;;;;;;;;;;;19.60;84.60;;;;;;4171332;28;19944;-47
2023/07/23 07:43:36;;;;;;;;;;;19.60;84.50;;;;;;4180111;28;20440;-47
2023/07/23 07:46:17;;;;;;;;;;;19.60;84.80;;;;;;4170409;28;19935;-46
2023/07/23 07:49:00;;;;;;;;;;;19.70;84.80;;;;;;4161211;28;20323;-50
2023/07/23 07:51:43;;;;;;;;;;;19.70;84.90;;;;;;4170807;28;19974;-51
2023/07/23 07:54:23;;;;;;;;;;;19.60;84.80;;;;;;4158767;28;19978;-52
2023/07/23 07:57:05;;;;;;;;;;;19.60;84.90;;;;;;4171365;28;19932;-48
2023/07/23 07:59:45;;;;;;;;;;;19.60;85.00;;;;;;4171071;28;19954;-47
2023/07/23 08:02:27;;;;;;;;;;;19.60;85.10;;;;;;4168076;28;19976;-50
2023/07/23 08:05:10;;;;;;;;;;;19.60;85.30;;;;;;4155869;28;20430;-50
2023/07/23 08:07:51;;;;;;;;;;;19.70;85.40;;;;;;4138225;28;19956;-50
2023/07/23 08:10:34;;;;;;;;;;;19.60;86.20;;;;;;4159402;28;20387;-49
2023/07/23 08:13:15;;;;;;;;;;;19.60;85.40;;;;;;4170965;28;19943;-52
2023/07/23 08:15:56;;;;;;;;;;;19.70;85.60;;;;;;4168666;28;19953;-51
2023/07/23 08:18:37;;;;;;;;;;;19.70;85.70;;;;;;4187349;28;19948;-49
2023/07/23 08:21:20;;;;;;;;;;;19.60;85.70;;;;;;4183127;28;20126;-48
2023/07/23 08:24:01;;;;;;;;;;;19.60;85.60;;;;;;4154034;28;20300;-50
2023/07/23 08:26:43;;;;;;;;;;;19.60;85.70;;;;;;4187557;28;19932;-49
2023/07/23 08:29:25;;;;;;;;;;;19.60;86.00;;;;;;4186768;28;19936;-50
2023/07/23 08:32:08;;;;;;;;;;;19.60;86.00;;;;;;4187439;28;20835;-47
2023/07/23 08:34:49;;;;;;;;;;;19.60;86.10;;;;;;4128572;28;19936;-47
2023/07/23 08:37:31;;;;;;;;;;;19.60;86.00;;;;;;4154016;28;20396;-51
2023/07/23 08:40:13;;;;;;;;;;;19.60;86.10;;;;;;4151194;28;20399;-50
2023/07/23 08:43:05;;;;;;;;;;;19.60;86.30;;;;;;4138763;28;19936;-50
2023/07/23 08:46:01;;;;;;;;;;;19.60;86.30;;;;;;4153945;28;19932;-53
2023/07/23 08:48:56;;;;;;;;;;;19.60;87.40;;;;;;4137393;28;19932;-49
2023/07/23 08:51:41;;;;;;;;;;;19.60;86.60;;;;;;4161612;28;20062;-50
2023/07/23 08:54:23;;;;;;;;;;;19.60;86.80;;;;;;4170780;28;19935;-49
2023/07/23 08:57:05;;;;;;;;;;;19.60;86.90;;;;;;4170509;28;20010;-47
2023/07/23 08:59:46;;;;;;;;;;;19.60;87.00;;;;;;4154459;28;19932;-49
2023/07/23 09:02:27;;;;;;;;;;;19.60;87.00;;;;;;4160494;28;20030;-50
2023/07/23 09:05:08;;;;;;;;;;;19.60;87.00;;;;;;4170545;28;20307;-50
2023/07/23 09:07:49;;;;;;;;;;;19.60;87.80;;;;;;4170456;28;20018;-52
2023/07/23 09:10:31;;;;;;;;;;;19.60;87.00;;;;;;4169999;28;20013;-51
2023/07/23 09:13:14;;;;;;;;;;;19.60;87.10;;;;;;4170568;28;19983;-50
2023/07/23 09:15:55;;;;;;;;;;;19.60;87.10;;;;;;4155586;28;20071;-52
2023/07/23 09:18:41;;;;;;;;;;;19.60;87.30;;;;;;4158814;28;20409;-54
2023/07/23 09:21:25;;;;;;;;;;;19.60;88.20;;;;;;4144338;28;20415;-49
2023/07/23 09:24:07;;;;;;;;;;;19.60;87.50;;;;;;4169358;28;19948;-51
2023/07/23 09:26:50;;;;;;;;;;;19.60;87.50;;;;;;4168032;28;19931;-51
2023/07/23 09:29:34;;;;;;;;;;;19.60;87.40;;;;;;4169906;28;19936;-51
2023/07/23 09:32:25;;;;;;;;;;;19.60;87.40;;;;;;4186775;28;20286;-51
2023/07/23 09:35:07;;;;;;;;;;;19.60;87.60;;;;;;4185475;28;20058;-49
2023/07/23 09:37:55;;;;;;;;;;;19.60;87.50;;;;;;4148578;28;20384;-54
2023/07/23 09:40:37;;;;;;;;;;;19.60;87.70;;;;;;4153854;28;19936;-51
2023/07/23 09:43:21;;;;;;;;;;;19.60;87.70;;;;;;4153649;28;19936;-50
2023/07/23 09:46:02;;;;;;;;;;;19.60;87.80;;;;;;4156206;28;19933;-49
2023/07/23 09:48:45;;;;;;;;;;;19.60;87.80;;;;;;4156231;28;19936;-50
2023/07/23 09:51:26;;;;;;;;;;;19.60;87.90;;;;;;4156946;28;19931;-54
2023/07/23 09:54:08;;;;;;;;;;;19.60;87.90;;;;;;4156735;28;20011;-51
2023/07/23 09:56:50;;;;;;;;;;;19.60;87.90;;;;;;4173191;28;20276;-50
2023/07/23 09:59:32;;;;;;;;;;;19.60;87.80;;;;;;4160876;28;20390;-52
2023/07/23 10:02:15;;;;;;;;;;;19.60;87.80;;;;;;4171576;28;20386;-52
2023/07/23 10:04:58;;;;;;;;;;;19.60;87.90;;;;;;4164938;28;19935;-50
2023/07/23 10:07:39;;;;;;;;;;;19.60;87.80;;;;;;4198431;28;20397;-50
2023/07/23 10:10:21;;;;;;;;;;;19.60;87.90;;;;;;4189297;28;19931;-54
2023/07/23 10:13:01;;;;;;;;;;;19.60;87.90;;;;;;4200326;28;19947;-51
2023/07/23 10:15:44;;;;;;;;;;;19.60;88.10;;;;;;4189125;28;19932;-51
2023/07/23 10:18:28;;;;;;;;;;;19.60;88.10;;;;;;4173947;28;20272;-51
2023/07/23 10:21:08;;;;;;;;;;;19.60;88.20;;;;;;4187729;28;20065;-51
2023/07/23 10:23:55;;;;;;;;;;;19.60;88.10;;;;;;4172578;28;20059;-53
2023/07/23 10:26:40;;;;;;;;;;;19.60;88.30;;;;;;4156159;28;20395;-52
2023/07/23 10:29:21;;;;;;;;;;;19.60;89.30;;;;;;4156716;28;20399;-52
2023/07/23 10:32:16;;;;;;;;;;;19.60;88.50;;;;;;4157161;28;20280;-49
2023/07/23 10:34:59;;;;;;;;;;;19.60;88.40;;;;;;4177888;28;19932;-47
2023/07/23 10:37:40;;;;;;;;;;;19.50;88.30;;;;;;4172481;28;19952;-51
2023/07/23 10:40:44;;;;;;;;;;;19.60;88.30;;;;;;4156100;28;19936;-51
2023/07/23 10:43:24;;;;;;;;;;;19.50;88.30;;;;;;4170800;28;20406;-50
2023/07/23 10:46:06;;;;;;;;;;;19.60;88.40;;;;;;4162557;28;19939;-52
2023/07/23 10:48:49;;;;;;;;;;;19.50;88.50;;;;;;4168616;28;20165;-50
2023/07/23 10:51:41;;;;;;;;;;;19.60;88.50;;;;;;4159431;28;20002;-50
2023/07/23 10:54:22;;;;;;;;;;;19.60;88.50;;;;;;4172189;28;20399;-48
2023/07/23 10:57:05;;;;;;;;;;;19.60;88.60;;;;;;4165220;28;19931;-48
2023/07/23 10:59:52;;;;;;;;;;;19.50;89.40;;;;;;4167879;28;19948;-48
2023/07/23 11:02:33;;;;;;;;;;;19.50;88.60;;;;;;4169715;28;19931;-51
2023/07/23 11:05:14;;;;;;;;;;;19.50;88.70;;;;;;4171721;28;19936;-52
2023/07/23 11:08:16;;;;;;;;;;;19.50;88.80;;;;;;4171849;28;19936;-52
2023/07/23 11:10:58;;;;;;;;;;;19.60;88.80;;;;;;4171118;28;19940;-53
2023/07/23 11:13:41;;;;;;;;;;;19.50;88.80;;;;;;4171325;28;20307;-51
2023/07/23 11:16:21;;;;;;;;;;;19.60;88.90;;;;;;4155967;28;19935;-52
2023/07/23 11:19:07;;;;;;;;;;;19.60;88.90;;;;;;4142459;28;20382;-50
2023/07/23 11:21:49;;;;;;;;;;;19.60;89.00;;;;;;4128565;28;19932;-52
2023/07/23 11:24:32;;;;;;;;;;;19.60;89.00;;;;;;4173410;28;19935;-48
2023/07/23 11:27:13;;;;;;;;;;;19.60;89.00;;;;;;4167195;28;19931;-51
2023/07/23 11:29:53;;;;;;;;;;;19.60;89.00;;;;;;4170814;28;20074;-51
2023/07/23 11:32:34;;;;;;;;;;;19.60;89.10;;;;;;4172178;28;20094;-51
2023/07/23 11:35:15;;;;;;;;;;;19.60;89.10;;;;;;4170502;28;19932;-52
2023/07/23 11:37:56;;;;;;;;;;;19.60;89.40;;;;;;4171056;28;20341;-48
2023/07/23 11:40:38;;;;;;;;;;;19.60;90.10;;;;;;4171002;28;19936;-49
2023/07/23 11:43:19;;;;;;;;;;;19.60;90.00;;;;;;4170999;28;19932;-50
2023/07/23 11:46:00;;;;;;;;;;;19.60;89.50;;;;;;4170113;28;20006;-49
2023/07/23 11:48:41;;;;;;;;;;;19.60;89.50;;;;;;4171344;28;19950;-47
2023/07/23 11:51:22;;;;;;;;;;;19.60;89.70;;;;;;4170290;28;19932;-47
2023/07/23 11:54:07;;;;;;;;;;;19.60;89.80;;;;;;4136698;28;20007;-47
2023/07/23 11:56:50;;;;;;;;;;;19.60;89.80;;;;;;4170862;28;19970;-51
2023/07/23 11:59:34;;;;;;;;;;;19.60;89.80;;;;;;4170025;28;19943;-51
2023/07/23 12:02:16;;;;;;;;;;;19.60;90.00;;;;;;4169311;28;19936;-51
2023/07/23 12:05:00;;;;;;;;;;;19.60;90.00;;;;;;4156101;28;19971;-54
2023/07/23 12:07:40;;;;;;;;;;;19.60;90.00;;;;;;4171559;28;19952;-49
2023/07/23 12:10:21;;;;;;;;;;;19.60;90.10;;;;;;4169688;28;19936;-51
2023/07/23 12:13:08;;;;;;;;;;;19.60;90.10;;;;;;4170665;28;19974;-51
2023/07/23 12:15:54;;;;;;;;;;;19.60;90.10;;;;;;4158315;28;19962;-53
2023/07/23 12:18:35;;;;;;;;;;;19.70;90.20;;;;;;4171233;28;19931;-53
2023/07/23 12:21:28;;;;;;;;;;;19.70;90.20;;;;;;4171456;28;19932;-53
2023/07/23 12:24:17;;;;;;;;;;;19.70;90.60;;;;;;4152918;28;20075;-53
2023/07/23 12:26:59;;;;;;;;;;;19.70;90.30;;;;;;4140021;28;20296;-53
2023/07/23 12:29:42;;;;;;;;;;;19.70;90.30;;;;;;4156312;28;21440;-48
2023/07/23 12:32:23;;;;;;;;;;;19.70;90.30;;;;;;4187007;28;20011;-50
2023/07/23 12:35:04;;;;;;;;;;;19.60;90.70;;;;;;4187053;28;19951;-52
2023/07/23 12:37:45;;;;;;;;;;;19.70;90.40;;;;;;4187509;28;20284;-48
2023/07/23 12:40:25;;;;;;;;;;;19.70;90.40;;;;;;4177370;28;19935;-49
2023/07/23 12:43:06;;;;;;;;;;;19.70;90.40;;;;;;4168534;28;20428;-50
2023/07/23 12:45:48;;;;;;;;;;;19.70;90.50;;;;;;4170314;28;19940;-50
2023/07/23 12:48:29;;;;;;;;;;;19.80;90.50;;;;;;4170913;28;20000;-53
2023/07/23 12:51:10;;;;;;;;;;;19.80;90.50;;;;;;4154028;28;19936;-51
2023/07/23 12:53:52;;;;;;;;;;;19.80;90.50;;;;;;4168222;28;19939;-50
2023/07/23 12:56:33;;;;;;;;;;;19.80;90.50;;;;;;4158032;28;19974;-48
2023/07/23 12:59:14;;;;;;;;;;;19.80;90.50;;;;;;4166750;28;20276;-50
2023/07/23 13:01:56;;;;;;;;;;;19.90;90.50;;;;;;4169917;28;19936;-50
2023/07/23 13:04:37;;;;;;;;;;;19.90;90.50;;;;;;4171217;28;19940;-52
2023/07/23 13:07:17;;;;;;;;;;;19.90;90.50;;;;;;4155405;28;19935;-49
2023/07/23 13:09:58;;;;;;;;;;;20.00;90.50;;;;;;4170341;28;19988;-49
2023/07/23 13:12:39;;;;;;;;;;;20.00;90.50;;;;;;4164208;28;20313;-48
2023/07/23 13:15:19;;;;;;;;;;;20.00;90.60;;;;;;4170800;28;19932;-51
2023/07/23 13:18:01;;;;;;;;;;;20.00;90.50;;;;;;4173656;28;20294;-51
2023/07/23 13:20:42;;;;;;;;;;;20.10;90.60;;;;;;4173888;28;20022;-51
2023/07/23 13:23:23;;;;;;;;;;;20.10;90.60;;;;;;4154808;28;19936;-50
2023/07/23 13:26:04;;;;;;;;;;;20.10;90.70;;;;;;4157866;28;19936;-52
2023/07/23 13:28:45;;;;;;;;;;;20.10;90.80;;;;;;4156134;28;20055;-51
2023/07/23 13:31:25;;;;;;;;;;;20.10;90.90;;;;;;4145334;28;19936;-52
2023/07/23 13:34:08;;;;;;;;;;;20.10;90.90;;;;;;4165073;28;20059;-49
2023/07/23 13:36:48;;;;;;;;;;;20.10;91.00;;;;;;4172979;28;19951;-50
2023/07/23 13:39:29;;;;;;;;;;;20.10;91.10;;;;;;4170728;28;19932;-51
2023/07/23 13:42:10;;;;;;;;;;;20.10;91.10;;;;;;4173723;28;20014;-49
2023/07/23 13:44:50;;;;;;;;;;;20.10;91.50;;;;;;4171966;28;19936;-52
2023/07/23 13:47:31;;;;;;;;;;;20.10;91.20;;;;;;4168035;28;19932;-50
2023/07/23 13:50:13;;;;;;;;;;;20.10;91.20;;;;;;4161391;28;19951;-50
2023/07/23 13:52:53;;;;;;;;;;;20.10;91.20;;;;;;4174510;28;19931;-51
2023/07/23 13:55:34;;;;;;;;;;;20.10;91.20;;;;;;4167688;28;19936;-51
2023/07/23 13:58:15;;;;;;;;;;;20.10;91.20;;;;;;4155938;28;20292;-49
2023/07/23 14:00:55;;;;;;;;;;;20.10;91.30;;;;;;4155477;28;19936;-52
2023/07/23 14:03:36;;;;;;;;;;;20.10;91.60;;;;;;4144783;28;19975;-46
2023/07/23 14:06:19;;;;;;;;;;;20.10;91.20;;;;;;4172570;28;19932;-48
2023/07/23 14:09:00;;;;;;;;;;;20.20;91.20;;;;;;4172873;28;20395;-49
2023/07/23 14:11:40;;;;;;;;;;;20.20;91.30;;;;;;4171727;28;20051;-49
2023/07/23 14:14:21;;;;;;;;;;;20.20;91.20;;;;;;4172876;28;19932;-49
2023/07/23 14:17:02;;;;;;;;;;;20.20;91.20;;;;;;4156391;28;19936;-47
2023/07/23 14:19:43;;;;;;;;;;;20.30;91.20;;;;;;4156310;28;19933;-51
2023/07/23 14:22:25;;;;;;;;;;;20.30;91.20;;;;;;4156602;28;19936;-47
2023/07/23 14:25:06;;;;;;;;;;;20.30;91.10;;;;;;4147483;28;20065;-49
2023/07/23 14:27:47;;;;;;;;;;;20.30;91.10;;;;;;4176540;28;20069;-49
2023/07/23 14:30:28;;;;;;;;;;;20.40;91.10;;;;;;4189411;28;19974;-51
2023/07/23 14:33:09;;;;;;;;;;;20.40;91.00;;;;;;4189623;28;20066;-51
2023/07/23 14:35:51;;;;;;;;;;;20.40;90.90;;;;;;4173914;28;20363;-49
2023/07/23 14:38:33;;;;;;;;;;;20.50;91.20;;;;;;4153884;28;20433;-51
2023/07/23 14:41:14;;;;;;;;;;;20.50;90.80;;;;;;4155365;28;19936;-48
2023/07/23 14:43:56;;;;;;;;;;;20.50;90.70;;;;;;4153207;28;19936;-51
2023/07/23 14:46:37;;;;;;;;;;;20.50;90.60;;;;;;4167192;28;19940;-50
2023/07/23 14:49:18;;;;;;;;;;;20.50;90.50;;;;;;4156257;28;19936;-49
2023/07/23 14:51:59;;;;;;;;;;;20.60;90.40;;;;;;4156781;28;19935;-50
2023/07/23 14:54:41;;;;;;;;;;;20.60;90.40;;;;;;4154443;28;19994;-49
2023/07/23 14:57:22;;;;;;;;;;;20.60;90.40;;;;;;4168820;28;19935;-50
2023/07/23 15:00:05;;;;;;;;;;;20.60;90.40;;;;;;4175261;28;19949;-47
2023/07/23 15:02:45;;;;;;;;;;;20.60;90.40;;;;;;4188495;28;20066;-50
2023/07/23 15:05:27;;;;;;;;;;;20.60;90.40;;;;;;4188368;28;20436;-49
2023/07/23 15:08:08;;;;;;;;;;;20.60;90.40;;;;;;4187909;28;20017;-49
2023/07/23 15:10:51;;;;;;;;;;;20.70;90.40;;;;;;4153121;28;19939;-49
2023/07/23 15:13:32;;;;;;;;;;;20.70;90.30;;;;;;4163993;28;19932;-48
2023/07/23 15:16:13;;;;;;;;;;;20.70;90.30;;;;;;4188978;28;19967;-49
2023/07/23 15:18:54;;;;;;;;;;;20.70;90.70;;;;;;4188797;28;19974;-50
2023/07/23 15:21:35;;;;;;;;;;;20.70;90.30;;;;;;4176594;28;19935;-46
2023/07/23 15:24:18;;;;;;;;;;;20.70;90.20;;;;;;4171284;28;19982;-47
2023/07/23 15:27:03;;;;;;;;;;;20.80;90.20;;;;;;4171291;28;19931;-52
2023/07/23 15:29:44;;;;;;;;;;;20.80;90.20;;;;;;4163017;28;19932;-53
2023/07/23 15:32:26;;;;;;;;;;;20.80;90.40;;;;;;4187904;28;19989;-51
2023/07/23 15:35:07;;;;;;;;;;;20.80;89.90;;;;;;4187747;28;20328;-52
2023/07/23 15:37:48;;;;;;;;;;;20.80;89.70;;;;;;4174588;28;20036;-50
2023/07/23 15:40:29;;;;;;;;;;;20.80;89.50;;;;;;4187309;28;19936;-49